createdAt,value
2019-02-02T00:00:42.323Z,16.80
2019-02-02T00:03:14.666Z,16.73
2019-02-02T00:05:46.807Z,16.65
2019-02-02T00:08:17.675Z,16.65
2019-02-02T00:10:48.646Z,16.69
2019-02-02T00:13:20.817Z,16.75
2019-02-02T00:15:53.276Z,16.75
2019-02-02T00:18:25.831Z,16.71
2019-02-02T00:20:57.815Z,16.73
2019-02-02T00:23:29.842Z,16.71
2019-02-02T00:26:02.323Z,16.71
2019-02-02T00:28:34.338Z,16.76
2019-02-02T00:31:06.531Z,16.71
2019-02-02T00:33:38.777Z,16.64
2019-02-02T00:36:09.646Z,16.57
2019-02-02T00:38:41.846Z,16.67
2019-02-02T00:41:14.789Z,16.67
2019-02-02T00:43:45.680Z,16.73
2019-02-02T00:46:16.658Z,16.72
2019-02-02T00:48:48.883Z,16.75
2019-02-02T00:51:20.760Z,16.68
2019-02-02T00:53:52.822Z,16.67
2019-02-02T00:56:24.852Z,16.72
2019-02-02T00:58:57.264Z,16.72
2019-02-02T01:01:29.708Z,16.76
2019-02-02T01:04:00.673Z,16.70
2019-02-02T01:06:32.820Z,16.74
2019-02-02T01:09:09.362Z,16.66
2019-02-02T01:11:41.327Z,16.62
2019-02-02T01:14:13.443Z,16.59
2019-02-02T01:16:45.665Z,16.58
2019-02-02T01:19:17.774Z,16.59
2019-02-02T01:21:49.807Z,16.59
2019-02-02T01:24:21.842Z,16.64
2019-02-02T01:26:53.848Z,16.65
2019-02-02T01:29:25.814Z,16.63
2019-02-02T01:31:57.794Z,16.64
2019-02-02T01:34:29.792Z,16.61
2019-02-02T01:37:01.775Z,16.59
2019-02-02T01:39:34.376Z,16.54
2019-02-02T01:42:06.811Z,16.71
2019-02-02T01:44:38.850Z,16.84
2019-02-02T01:47:10.811Z,16.89
2019-02-02T01:49:43.816Z,16.94
2019-02-02T01:52:16.312Z,16.95
2019-02-02T01:54:48.792Z,16.97
2019-02-02T01:57:20.850Z,17.08
2019-02-02T01:59:52.864Z,17.16
2019-02-02T02:02:24.796Z,17.16
2019-02-02T02:04:56.826Z,17.04
2019-02-02T02:07:28.824Z,16.87
2019-02-02T02:10:00.835Z,17.04
2019-02-02T02:12:33.047Z,16.96
2019-02-02T02:15:04.992Z,16.84
2019-02-02T02:17:36.780Z,16.81
2019-02-02T02:20:09.827Z,16.77
2019-02-02T02:22:41.817Z,16.75
2019-02-02T02:25:17.812Z,16.81
2019-02-02T02:27:50.315Z,16.84
2019-02-02T02:30:24.732Z,16.82
2019-02-02T02:32:55.658Z,16.83
2019-02-02T02:35:27.798Z,16.83
2019-02-02T02:37:59.832Z,16.85
2019-02-02T02:40:31.779Z,16.82
2019-02-02T02:43:03.793Z,16.89
2019-02-02T02:45:35.835Z,16.86
2019-02-02T02:48:07.854Z,16.78
2019-02-02T02:50:39.832Z,16.87
2019-02-02T02:53:12.324Z,16.87
2019-02-02T02:55:44.818Z,16.78
2019-02-02T02:58:16.818Z,16.80
2019-02-02T03:00:48.810Z,16.80
2019-02-02T03:03:20.804Z,16.87
2019-02-02T03:05:52.822Z,16.83
2019-02-02T03:08:24.828Z,16.84
2019-02-02T03:10:56.842Z,16.87
2019-02-02T03:13:28.842Z,16.77
2019-02-02T03:16:01.112Z,16.77
2019-02-02T03:18:33.324Z,16.84
2019-02-02T03:21:05.407Z,16.88
2019-02-02T03:23:37.786Z,16.78
2019-02-02T03:26:08.657Z,16.74
2019-02-02T03:28:52.793Z,16.78
2019-02-02T03:31:14.844Z,16.70
2019-02-02T03:33:46.818Z,16.70
2019-02-02T03:36:18.849Z,16.72
2019-02-02T03:38:51.800Z,16.74
2019-02-02T03:41:22.677Z,16.68
2019-02-02T03:43:53.633Z,16.71
2019-02-02T03:46:25.848Z,16.82
2019-02-02T03:48:57.799Z,16.82
2019-02-02T03:51:28.661Z,16.89
2019-02-02T03:54:08.370Z,16.82
2019-02-02T03:56:34.827Z,16.77
2019-02-02T03:59:07.242Z,16.77
2019-02-02T04:01:39.416Z,16.86
2019-02-02T04:04:11.802Z,16.69
2019-02-02T04:06:43.822Z,16.70
2019-02-02T04:09:15.784Z,16.69
2019-02-02T04:11:47.817Z,16.70
2019-02-02T04:14:19.826Z,16.77
2019-02-02T04:16:51.813Z,16.75
2019-02-02T04:19:24.319Z,16.76
2019-02-02T04:21:56.368Z,16.70
2019-02-02T04:24:28.999Z,16.69
2019-02-02T04:27:01.454Z,16.68
2019-02-02T04:29:33.491Z,16.66
2019-02-02T04:32:05.848Z,16.58
2019-02-02T04:34:37.854Z,16.66
2019-02-02T04:37:09.804Z,16.62
2019-02-02T04:39:41.811Z,16.69
2019-02-02T04:42:13.821Z,16.67
2019-02-02T04:44:46.315Z,16.62
2019-02-02T04:47:18.867Z,16.60
2019-02-02T04:49:50.819Z,16.59
2019-02-02T04:52:21.706Z,16.65
2019-02-02T04:54:53.516Z,16.61
2019-02-02T04:57:26.365Z,16.57
2019-02-02T04:59:58.808Z,16.57
2019-02-02T05:02:30.830Z,16.59
2019-02-02T05:05:02.859Z,16.55
2019-02-02T05:07:35.331Z,16.53
2019-02-02T05:10:08.309Z,16.48
2019-02-02T05:12:43.775Z,16.50
2019-02-02T05:15:14.691Z,16.55
2019-02-02T05:17:46.856Z,16.62
2019-02-02T05:20:18.854Z,16.73
2019-02-02T05:22:51.325Z,16.92
2019-02-02T05:25:23.539Z,16.93
2019-02-02T05:27:55.837Z,16.93
2019-02-02T05:30:31.649Z,16.94
2019-02-02T05:33:04.318Z,16.88
2019-02-02T05:35:36.776Z,16.88
2019-02-02T05:38:07.663Z,16.94
2019-02-02T05:40:39.803Z,16.86
2019-02-02T05:43:11.771Z,16.86
2019-02-02T05:45:43.810Z,16.78
2019-02-02T05:48:15.911Z,16.74
2019-02-02T05:50:47.954Z,16.70
2019-02-02T05:53:19.808Z,16.84
2019-02-02T05:55:51.796Z,16.95
2019-02-02T05:58:22.675Z,16.91
2019-02-02T06:00:55.572Z,16.87
2019-02-02T06:03:27.790Z,17.04
2019-02-02T06:05:58.918Z,17.04
2019-02-02T06:08:31.276Z,17.57
2019-02-02T06:11:03.298Z,17.89
2019-02-02T06:13:35.350Z,18.21
2019-02-02T06:16:07.769Z,18.35
2019-02-02T06:18:38.655Z,18.55
2019-02-02T06:21:10.839Z,18.85
2019-02-02T06:23:43.309Z,18.85
2019-02-02T06:26:15.795Z,18.88
2019-02-02T06:28:47.902Z,19.08
2019-02-02T06:31:20.311Z,19.14
2019-02-02T06:33:52.310Z,19.18
2019-02-02T06:36:24.323Z,19.17
2019-02-02T06:38:56.661Z,19.13
2019-02-02T06:41:28.951Z,18.96
2019-02-02T06:44:01.313Z,18.96
2019-02-02T06:46:43.217Z,18.91
2019-02-02T06:49:07.593Z,18.85
2019-02-02T06:51:39.807Z,18.68
2019-02-02T06:54:11.813Z,18.68
2019-02-02T06:56:43.842Z,18.53
2019-02-02T06:59:15.846Z,18.47
2019-02-02T07:01:47.855Z,18.40
2019-02-02T07:04:20.015Z,18.27
2019-02-02T07:06:52.310Z,18.15
2019-02-02T07:09:24.834Z,18.03
2019-02-02T07:11:56.836Z,17.92
2019-02-02T07:14:28.838Z,17.79
2019-02-02T07:17:00.801Z,17.65
2019-02-02T07:19:32.790Z,17.58
2019-02-02T07:22:04.778Z,17.43
2019-02-02T07:24:35.670Z,17.22
2019-02-02T07:27:06.678Z,17.10
2019-02-02T07:29:38.952Z,17.03
2019-02-02T07:32:10.818Z,17.01
2019-02-02T07:34:42.808Z,17.02
2019-02-02T07:37:16.899Z,17.31
2019-02-02T07:39:49.304Z,17.49
2019-02-02T07:42:21.797Z,17.70
2019-02-02T07:44:52.693Z,17.79
2019-02-02T07:47:23.651Z,17.80
2019-02-02T07:49:55.837Z,17.66
2019-02-02T07:52:27.789Z,17.66
2019-02-02T07:54:58.675Z,17.55
2019-02-02T07:57:29.676Z,17.55
2019-02-02T08:00:00.660Z,17.45
2019-02-02T08:02:32.772Z,17.42
2019-02-02T08:05:04.840Z,17.25
2019-02-02T08:07:36.798Z,17.44
2019-02-02T08:10:11.384Z,17.40
2019-02-02T08:12:43.819Z,17.38
2019-02-02T08:15:21.125Z,17.63
2019-02-02T08:17:53.302Z,17.34
2019-02-02T08:20:25.316Z,17.58
2019-02-02T08:22:57.808Z,17.64
2019-02-02T08:25:28.670Z,17.66
2019-02-02T08:27:59.647Z,17.68
2019-02-02T08:30:35.828Z,17.59
2019-02-02T08:33:08.866Z,17.59
2019-02-02T08:35:41.332Z,17.74
2019-02-02T08:38:13.788Z,17.71
2019-02-02T08:40:44.684Z,17.62
2019-02-02T08:43:15.884Z,17.35
2019-02-02T08:45:47.829Z,17.53
2019-02-02T08:48:20.313Z,17.64
2019-02-02T08:50:52.783Z,17.61
2019-02-02T08:53:24.795Z,17.57
2019-02-02T08:55:56.843Z,17.52
2019-02-02T08:58:28.786Z,17.45
2019-02-02T09:01:04.229Z,17.40
2019-02-02T09:03:33.878Z,17.18
2019-02-02T09:06:05.803Z,16.95
2019-02-02T09:08:37.812Z,16.81
2019-02-02T09:11:10.309Z,16.81
2019-02-02T09:13:42.276Z,16.86
2019-02-02T09:16:14.318Z,16.95
2019-02-02T09:18:46.415Z,17.44
2019-02-02T09:21:18.490Z,17.72
2019-02-02T09:23:50.711Z,17.86
2019-02-02T09:26:21.679Z,17.86
2019-02-02T09:28:52.354Z,17.70
2019-02-02T09:31:24.452Z,17.68
2019-02-02T09:33:56.874Z,17.71
2019-02-02T09:36:28.826Z,17.64
2019-02-02T09:39:00.808Z,17.57
2019-02-02T09:41:32.841Z,17.55
2019-02-02T09:44:04.826Z,17.63
2019-02-02T09:46:36.983Z,17.61
2019-02-02T09:49:08.778Z,17.49
2019-02-02T09:51:41.287Z,17.49
2019-02-02T09:54:13.635Z,17.48
2019-02-02T09:56:45.822Z,17.45
2019-02-02T09:59:17.827Z,17.45
2019-02-02T10:01:49.786Z,17.49
2019-02-02T10:04:20.659Z,17.47
2019-02-02T10:06:52.795Z,17.47
2019-02-02T10:09:24.857Z,17.47
2019-02-02T10:11:57.003Z,17.51
2019-02-02T10:14:29.373Z,17.42
2019-02-02T10:18:58.071Z,17.38
2019-02-02T10:21:30.483Z,17.38
2019-02-02T10:24:03.220Z,17.44
2019-02-02T10:26:35.856Z,17.38
2019-02-02T10:29:08.079Z,17.37
2019-02-02T10:31:43.806Z,17.31
2019-02-02T10:34:15.841Z,17.36
2019-02-02T10:36:47.907Z,17.35
2019-02-02T10:39:19.838Z,17.30
2019-02-02T10:41:52.320Z,17.28
2019-02-02T10:44:24.643Z,17.28
2019-02-02T10:46:55.879Z,17.32
2019-02-02T10:49:28.355Z,17.25
2019-02-02T10:52:00.852Z,17.20
2019-02-02T10:54:33.677Z,17.22
2019-02-02T10:57:05.883Z,17.19
2019-02-02T10:59:38.035Z,17.19
2019-02-02T11:02:10.309Z,17.26
2019-02-02T11:04:42.842Z,17.27
2019-02-02T11:07:15.125Z,17.23
2019-02-02T11:09:47.863Z,17.20
2019-02-02T11:12:20.136Z,17.15
2019-02-02T11:14:52.997Z,17.22
2019-02-02T11:17:25.829Z,17.22
2019-02-02T11:19:58.498Z,17.26
2019-02-02T11:22:30.494Z,17.28
2019-02-02T11:25:02.300Z,17.32
2019-02-02T11:27:35.067Z,17.28
2019-02-02T11:30:09.856Z,17.37
2019-02-02T11:32:41.897Z,17.34
2019-02-02T11:35:15.907Z,17.36
2019-02-02T11:37:47.765Z,17.38
2019-02-02T11:40:24.936Z,17.41
2019-02-02T11:42:57.054Z,17.40
2019-02-02T11:45:28.741Z,17.31
2019-02-02T11:48:01.306Z,17.31
2019-02-02T11:50:33.068Z,17.25
2019-02-02T11:53:05.303Z,17.28
2019-02-02T11:55:36.902Z,17.28
2019-02-02T11:58:23.343Z,17.27
2019-02-02T12:00:55.454Z,17.16
2019-02-02T12:03:27.303Z,17.14
2019-02-02T12:05:58.910Z,17.09
2019-02-02T12:08:30.776Z,17.18
2019-02-02T12:11:01.607Z,17.25
2019-02-02T12:13:35.934Z,17.14
2019-02-02T12:16:07.749Z,17.14
2019-02-02T12:18:39.462Z,17.22
2019-02-02T12:21:11.839Z,17.22
2019-02-02T12:23:43.790Z,17.25
2019-02-02T12:26:16.042Z,17.28
2019-02-02T12:28:47.799Z,17.38
2019-02-02T12:31:19.728Z,17.37
2019-02-02T12:34:02.604Z,17.34
2019-02-02T12:36:25.862Z,17.27
2019-02-02T12:38:57.870Z,17.34
2019-02-02T12:41:29.749Z,17.34
2019-02-02T12:44:00.516Z,17.36
2019-02-02T12:46:33.287Z,17.37
2019-02-02T12:49:05.302Z,17.35
2019-02-02T12:51:37.454Z,17.28
2019-02-02T12:54:09.309Z,17.27
2019-02-02T12:56:40.859Z,17.28
2019-02-02T12:59:12.755Z,17.20
2019-02-02T13:01:43.503Z,17.18
2019-02-02T13:04:15.296Z,17.27
2019-02-02T13:06:47.306Z,17.75
2019-02-02T13:09:18.859Z,18.19
2019-02-02T13:11:50.376Z,18.47
2019-02-02T13:14:22.306Z,18.67
2019-02-02T13:16:53.859Z,18.89
2019-02-02T13:19:25.725Z,19.06
2019-02-02T13:21:56.466Z,19.23
2019-02-02T13:24:28.434Z,19.36
2019-02-02T13:27:00.630Z,19.52
2019-02-02T13:29:32.406Z,19.85
2019-02-02T13:32:04.066Z,19.85
2019-02-02T13:34:35.757Z,19.97
2019-02-02T13:37:06.499Z,19.94
2019-02-02T13:39:40.422Z,19.93
2019-02-02T13:42:16.137Z,19.88
2019-02-02T13:44:48.343Z,19.89
2019-02-02T13:47:20.393Z,19.83
2019-02-02T13:49:52.311Z,19.72
2019-02-02T13:52:24.325Z,19.59
2019-02-02T13:54:56.268Z,19.53
2019-02-02T13:57:27.849Z,19.42
2019-02-02T13:59:59.771Z,19.27
2019-02-02T14:02:31.603Z,19.15
2019-02-02T14:05:04.208Z,18.89
2019-02-02T14:07:35.812Z,18.89
2019-02-02T14:10:09.794Z,18.77
2019-02-02T14:12:41.376Z,18.66
2019-02-02T14:15:13.812Z,18.55
2019-02-02T14:17:45.880Z,18.45
2019-02-02T14:20:17.793Z,18.29
2019-02-02T14:22:48.452Z,18.14
2019-02-02T14:25:20.307Z,18.05
2019-02-02T14:27:51.858Z,17.90
2019-02-02T14:30:26.306Z,17.82
2019-02-02T14:32:58.751Z,17.74
2019-02-02T14:35:30.109Z,17.51
2019-02-02T14:38:01.759Z,17.44
2019-02-02T14:40:32.644Z,17.39
2019-02-02T14:43:04.386Z,18.06
2019-02-02T14:45:36.067Z,18.06
2019-02-02T14:48:07.745Z,18.17
2019-02-02T14:50:38.511Z,18.06
2019-02-02T14:53:10.301Z,18.19
2019-02-02T14:55:41.890Z,18.18
2019-02-02T14:58:13.836Z,18.12
2019-02-02T15:00:45.755Z,18.05
2019-02-02T15:03:25.626Z,17.97
2019-02-02T15:05:50.771Z,17.84
2019-02-02T15:08:22.373Z,17.91
2019-02-02T15:10:54.068Z,18.22
2019-02-02T15:13:25.741Z,18.69
2019-02-02T15:15:56.651Z,19.03
2019-02-02T15:18:28.345Z,19.31
2019-02-02T15:21:00.401Z,19.31
2019-02-02T15:23:32.006Z,19.49
2019-02-02T15:26:04.736Z,19.51
2019-02-02T15:28:35.867Z,19.44
2019-02-02T15:31:07.691Z,19.33
2019-02-02T15:33:38.668Z,19.28
2019-02-02T15:36:09.505Z,19.16
2019-02-02T15:38:41.816Z,19.09
2019-02-02T15:41:13.618Z,18.98
2019-02-02T15:43:45.418Z,18.89
2019-02-02T15:46:17.064Z,18.89
2019-02-02T15:48:48.749Z,18.76
2019-02-02T15:51:19.474Z,18.76
2019-02-02T15:53:51.314Z,18.78
2019-02-02T15:56:23.063Z,18.66
2019-02-02T15:58:57.770Z,18.48
2019-02-02T16:01:28.485Z,18.32
2019-02-02T16:04:00.302Z,18.17
2019-02-02T16:06:32.301Z,18.18
2019-02-02T16:09:05.370Z,18.01
2019-02-02T16:11:37.308Z,17.84
2019-02-02T16:14:09.501Z,17.69
2019-02-02T16:16:41.260Z,17.66
2019-02-02T16:19:13.422Z,17.71
2019-02-02T16:21:45.305Z,17.86
2019-02-02T16:24:17.046Z,18.01
2019-02-02T16:26:48.823Z,18.25
2019-02-02T16:29:20.754Z,18.38
2019-02-02T16:31:57.781Z,18.27
2019-02-02T16:34:28.753Z,18.15
2019-02-02T16:36:59.477Z,18.35
2019-02-02T16:39:31.307Z,18.31
2019-02-02T16:42:03.307Z,18.25
2019-02-02T16:44:34.833Z,18.11
2019-02-02T16:47:06.859Z,17.99
2019-02-02T16:49:38.766Z,17.99
2019-02-02T16:52:09.475Z,17.97
2019-02-02T16:54:41.361Z,17.94
2019-02-02T16:57:13.024Z,17.91
2019-02-02T16:59:44.778Z,17.92
2019-02-02T17:02:15.517Z,18.01
2019-02-02T17:04:47.584Z,18.36
2019-02-02T17:07:18.649Z,18.71
2019-02-02T17:09:50.732Z,19.02
2019-02-02T17:12:21.475Z,19.02
2019-02-02T17:14:55.700Z,19.22
2019-02-02T17:17:26.805Z,19.36
2019-02-02T17:19:58.571Z,19.41
2019-02-02T17:22:30.403Z,19.34
2019-02-02T17:25:02.035Z,19.34
2019-02-02T17:27:33.822Z,19.22
2019-02-02T17:30:07.376Z,19.23
2019-02-02T17:32:39.077Z,19.10
2019-02-02T17:35:11.913Z,19.04
2019-02-02T17:37:43.410Z,18.98
2019-02-02T17:40:19.993Z,18.94
2019-02-02T17:42:51.860Z,18.80
2019-02-02T17:45:24.102Z,18.63
2019-02-02T17:47:57.003Z,18.57
2019-02-02T17:50:29.891Z,18.43
2019-02-02T17:53:02.490Z,18.22
2019-02-02T17:55:35.514Z,18.00
2019-02-02T17:58:07.829Z,18.00
2019-02-02T18:00:54.757Z,17.90
2019-02-02T18:03:27.327Z,17.65
2019-02-02T18:05:59.816Z,17.49
2019-02-02T18:08:31.817Z,17.48
2019-02-02T18:11:03.867Z,17.60
2019-02-02T18:13:35.993Z,18.25
2019-02-02T18:16:07.916Z,18.44
2019-02-02T18:18:39.857Z,18.40
2019-02-02T18:21:11.840Z,18.26
2019-02-02T18:23:43.813Z,18.36
2019-02-02T18:26:15.810Z,18.45
2019-02-02T18:28:47.878Z,18.42
2019-02-02T18:31:19.851Z,18.30
2019-02-02T18:33:51.825Z,18.16
2019-02-02T18:36:23.844Z,18.23
2019-02-02T18:38:55.884Z,18.31
2019-02-02T18:41:27.819Z,18.23
2019-02-02T18:43:59.809Z,18.12
2019-02-02T18:46:31.877Z,18.07
2019-02-02T18:49:03.864Z,18.09
2019-02-02T18:51:35.869Z,18.19
2019-02-02T18:54:08.331Z,18.24
2019-02-02T18:56:40.871Z,18.28
2019-02-02T18:59:12.819Z,18.35
2019-02-02T19:01:44.860Z,18.26
2019-02-02T19:04:16.852Z,18.11
2019-02-02T19:06:49.067Z,17.99
2019-02-02T19:09:21.100Z,17.82
2019-02-02T19:11:53.323Z,18.18
2019-02-02T19:14:25.876Z,18.58
2019-02-02T19:17:01.210Z,18.84
2019-02-02T19:19:30.725Z,18.99
2019-02-02T19:22:01.739Z,19.04
2019-02-02T19:24:33.911Z,19.04
2019-02-02T19:27:05.798Z,19.01
2019-02-02T19:29:37.884Z,18.99
2019-02-02T19:32:10.809Z,18.90
2019-02-02T19:34:43.388Z,18.85
2019-02-02T19:37:15.993Z,18.78
2019-02-02T19:39:48.330Z,18.66
2019-02-02T19:42:21.347Z,18.55
2019-02-02T19:44:53.871Z,18.47
2019-02-02T19:47:26.485Z,18.43
2019-02-02T19:49:58.910Z,18.34
2019-02-02T19:52:31.094Z,18.22
2019-02-02T19:55:14.417Z,17.94
2019-02-02T19:57:37.277Z,17.83
2019-02-02T20:00:21.651Z,17.53
2019-02-02T20:02:54.285Z,17.65
2019-02-02T20:05:29.035Z,17.65
2019-02-02T20:08:00.668Z,18.24
2019-02-02T20:10:32.896Z,18.39
2019-02-02T20:13:05.321Z,18.34
2019-02-02T20:15:37.833Z,18.36
2019-02-02T20:18:10.697Z,18.30
2019-02-02T20:20:42.912Z,18.22
2019-02-02T20:23:15.893Z,18.33
2019-02-02T20:25:49.329Z,18.22
2019-02-02T20:28:22.084Z,18.07
2019-02-02T20:30:54.990Z,18.05
2019-02-02T20:33:28.096Z,18.01
2019-02-02T20:36:01.323Z,17.96
2019-02-02T20:38:33.903Z,17.91
2019-02-02T20:41:06.796Z,17.98
2019-02-02T20:43:39.468Z,17.94
2019-02-02T20:46:12.028Z,17.88
2019-02-02T20:48:44.724Z,17.84
2019-02-02T20:51:17.683Z,17.78
2019-02-02T20:53:49.276Z,17.80
2019-02-02T20:56:23.917Z,17.81
2019-02-02T20:58:56.867Z,17.77
2019-02-02T21:01:29.339Z,17.79
2019-02-02T21:04:02.097Z,17.74
2019-02-02T21:06:34.923Z,17.75
2019-02-02T21:09:09.289Z,17.72
2019-02-02T21:11:42.056Z,17.65
2019-02-02T21:14:14.928Z,17.62
2019-02-02T21:16:47.911Z,17.63
2019-02-02T21:19:20.874Z,17.61
2019-02-02T21:21:53.511Z,17.57
2019-02-02T21:24:27.239Z,17.61
2019-02-02T21:27:00.071Z,17.53
2019-02-02T21:29:32.861Z,17.52
2019-02-02T21:32:05.332Z,17.42
2019-02-02T21:34:38.042Z,17.43
2019-02-02T21:37:10.940Z,17.55
2019-02-02T21:39:43.880Z,17.51
2019-02-02T21:42:17.099Z,17.49
2019-02-02T21:44:49.863Z,17.46
2019-02-02T21:47:22.409Z,17.46
2019-02-02T21:49:55.039Z,17.40
2019-02-02T21:52:28.318Z,17.39
2019-02-02T21:55:01.094Z,17.32
2019-02-02T21:57:34.028Z,17.33
2019-02-02T22:00:10.849Z,17.32
2019-02-02T22:02:44.328Z,17.33
2019-02-02T22:05:17.642Z,17.35
2019-02-02T22:07:50.319Z,17.32
2019-02-02T22:10:23.102Z,17.34
2019-02-02T22:12:56.026Z,17.32
2019-02-02T22:15:28.996Z,17.25
2019-02-02T22:18:02.340Z,17.24
2019-02-02T22:20:35.396Z,17.24
2019-02-02T22:23:08.042Z,17.27
2019-02-02T22:25:40.907Z,17.24
2019-02-02T22:28:13.896Z,17.21
2019-02-02T22:30:46.900Z,17.24
2019-02-02T22:33:19.484Z,17.24
2019-02-02T22:35:52.095Z,17.25
2019-02-02T22:38:24.926Z,17.22
2019-02-02T22:40:58.100Z,17.25
2019-02-02T22:43:31.077Z,17.16
2019-02-02T22:46:04.094Z,17.11
2019-02-02T22:48:37.039Z,17.15
2019-02-02T22:51:09.913Z,17.17
2019-02-02T22:53:42.883Z,17.17
2019-02-02T22:56:16.027Z,17.15
2019-02-02T22:58:49.396Z,17.15
2019-02-02T23:01:43.939Z,17.14
2019-02-02T23:05:00.021Z,17.17
2019-02-02T23:08:45.009Z,17.14
2019-02-02T23:12:24.451Z,17.13
2019-02-02T23:16:07.006Z,17.13
2019-02-02T23:18:40.101Z,17.10
2019-02-02T23:21:13.098Z,17.09
2019-02-02T23:23:46.041Z,17.10
2019-02-02T23:26:18.934Z,17.03
2019-02-02T23:28:51.986Z,17.09
2019-02-02T23:31:25.070Z,17.02
2019-02-02T23:33:57.883Z,17.06
2019-02-02T23:36:30.572Z,17.04
2019-02-02T23:39:03.140Z,17.05
2019-02-02T23:41:34.746Z,17.02
2019-02-02T23:44:05.517Z,16.98
2019-02-02T23:46:37.314Z,17.05
2019-02-02T23:49:09.316Z,17.05
2019-02-02T23:51:40.881Z,17.05
2019-02-02T23:54:13.070Z,17.00
2019-02-02T23:56:44.752Z,16.95
2019-02-02T23:59:15.715Z,16.96
